TimePDT,TemperatureF,Dew PointF,Humidity,Sea Level PressureIn,VisibilityMPH,Wind Direction,Wind SpeedMPH,Gust SpeedMPH,PrecipitationIn,Events,Conditions,WindDirDegrees,DateUTC
12:15 AM,48.2,41.0,76,30.11,10.0,SW,6.9,-,N/A,,Overcast,220,2013-06-25 07:15:00
12:35 AM,48.2,41.0,76,30.11,10.0,Calm,Calm,-,N/A,,Overcast,0,2013-06-25 07:35:00
12:55 AM,48.2,41.0,76,30.11,10.0,Calm,Calm,-,N/A,,Overcast,0,2013-06-25 07:55:00
1:15 AM,48.2,41.0,76,30.11,10.0,Calm,Calm,-,N/A,,Mostly Cloudy,0,2013-06-25 08:15:00
1:35 AM,46.4,39.2,76,30.11,10.0,Calm,Calm,-,N/A,,Mostly Cloudy,0,2013-06-25 08:35:00
1:55 AM,44.6,37.4,76,30.11,10.0,Calm,Calm,-,N/A,,Scattered Clouds,0,2013-06-25 08:55:00
2:15 AM,44.6,39.2,81,30.11,10.0,South,8.1,-,N/A,,Clear,180,2013-06-25 09:15:00
2:35 AM,44.6,39.2,81,30.11,10.0,SSW,5.8,-,N/A,,Clear,200,2013-06-25 09:35:00
2:55 AM,44.6,39.2,81,30.11,10.0,Calm,Calm,-,N/A,,Clear,0,2013-06-25 09:55:00
3:15 AM,44.6,39.2,81,30.11,10.0,Calm,Calm,-,N/A,,Clear,0,2013-06-25 10:15:00
3:35 AM,42.8,37.4,81,30.11,10.0,Calm,Calm,-,N/A,,Scattered Clouds,0,2013-06-25 10:35:00
3:55 AM,41.0,35.6,81,30.12,10.0,North,5.8,-,N/A,,Scattered Clouds,350,2013-06-25 10:55:00
4:15 AM,42.8,37.4,81,30.12,10.0,Calm,Calm,-,N/A,,Scattered Clouds,0,2013-06-25 11:15:00
4:35 AM,42.8,39.2,87,30.12,10.0,Calm,Calm,-,N/A,,Scattered Clouds,0,2013-06-25 11:35:00
4:55 AM,46.4,41.0,81,30.12,10.0,NNW,4.6,-,N/A,,Mostly Cloudy,330,2013-06-25 11:55:00
5:15 AM,44.6,41.0,87,30.12,10.0,North,5.8,-,N/A,,Scattered Clouds,10,2013-06-25 12:15:00
5:35 AM,46.4,41.0,81,30.13,10.0,Calm,Calm,-,N/A,,Scattered Clouds,0,2013-06-25 12:35:00
5:55 AM,46.4,39.2,76,30.14,10.0,Calm,Calm,-,N/A,,Scattered Clouds,0,2013-06-25 12:55:00
6:15 AM,46.4,41.0,81,30.13,10.0,South,3.5,-,N/A,,Scattered Clouds,190,2013-06-25 13:15:00
6:35 AM,46.4,41.0,81,30.14,10.0,Calm,Calm,-,N/A,,Scattered Clouds,0,2013-06-25 13:35:00
6:55 AM,50.0,42.8,76,30.15,10.0,Calm,Calm,-,N/A,,Mostly Cloudy,0,2013-06-25 13:55:00
7:15 AM,50.0,42.8,76,30.14,10.0,Calm,Calm,-,N/A,,Mostly Cloudy,0,2013-06-25 14:15:00
7:35 AM,51.8,42.8,71,30.14,10.0,SSE,4.6,-,N/A,,Scattered Clouds,160,2013-06-25 14:35:00
7:55 AM,55.4,42.8,63,30.16,10.0,East,4.6,-,N/A,,Scattered Clouds,80,2013-06-25 14:55:00
8:15 AM,55.4,42.8,63,30.16,10.0,Calm,Calm,-,N/A,,Mostly Cloudy,0,2013-06-25 15:15:00
8:35 AM,57.2,42.8,59,30.16,10.0,East,4.6,-,N/A,,Mostly Cloudy,80,2013-06-25 15:35:00
8:55 AM,60.8,42.8,52,30.16,10.0,NW,6.9,-,N/A,,Overcast,320,2013-06-25 15:55:00
9:15 AM,62.6,39.2,42,30.16,10.0,South,5.8,18.4,N/A,,Mostly Cloudy,180,2013-06-25 16:15:00
9:35 AM,64.4,37.4,37,30.17,10.0,SSW,11.5,26.5,N/A,,Mostly Cloudy,210,2013-06-25 16:35:00
9:55 AM,64.4,37.4,37,30.17,10.0,West,5.8,-,N/A,,Overcast,270,2013-06-25 16:55:00
10:15 AM,66.2,39.2,37,30.17,10.0,SSW,4.6,18.4,N/A,,Overcast,210,2013-06-25 17:15:00
10:35 AM,68.0,37.4,33,30.17,10.0,SSW,16.1,28.8,N/A,,Scattered Clouds,210,2013-06-25 17:35:00
10:55 AM,68.0,37.4,33,30.17,10.0,SW,18.4,31.1,N/A,,Clear,230,2013-06-25 17:55:00
11:15 AM,68.0,37.4,33,30.17,10.0,SSW,16.1,32.2,N/A,,Clear,210,2013-06-25 18:15:00
11:35 AM,69.8,37.4,31,30.18,10.0,SW,17.3,28.8,N/A,,Clear,230,2013-06-25 18:35:00
11:55 AM,69.8,35.6,28,30.18,10.0,SW,18.4,29.9,N/A,,Clear,220,2013-06-25 18:55:00
12:15 PM,71.6,35.6,27,30.17,10.0,SW,8.1,27.6,N/A,,Clear,220,2013-06-25 19:15:00
12:35 PM,71.6,35.6,27,30.18,10.0,SW,17.3,32.2,N/A,,Clear,230,2013-06-25 19:35:00
12:55 PM,73.4,35.6,25,30.18,10.0,SSW,20.7,26.5,N/A,,Clear,210,2013-06-25 19:55:00
1:15 PM,71.6,35.6,27,30.18,10.0,WSW,13.8,29.9,N/A,,Clear,250,2013-06-25 20:15:00
1:35 PM,73.4,37.4,27,30.19,10.0,WSW,10.4,28.8,N/A,,Clear,240,2013-06-25 20:35:00
1:55 PM,73.4,37.4,27,30.18,10.0,West,20.7,36.8,N/A,,Clear,270,2013-06-25 20:55:00
2:15 PM,75.2,37.4,25,30.19,10.0,SW,16.1,29.9,N/A,,Clear,230,2013-06-25 21:15:00
2:35 PM,73.4,39.2,29,30.19,10.0,WSW,9.2,29.9,N/A,,Clear,240,2013-06-25 21:35:00
2:55 PM,73.4,39.2,29,30.19,10.0,SW,17.3,27.6,N/A,,Clear,230,2013-06-25 21:55:00
3:15 PM,71.6,39.2,31,30.19,10.0,WSW,13.8,32.2,N/A,,Clear,240,2013-06-25 22:15:00
3:35 PM,71.6,41.0,33,30.18,10.0,West,16.1,31.1,N/A,,Clear,270,2013-06-25 22:35:00
3:55 PM,73.4,39.2,29,30.18,10.0,SW,23.0,28.8,N/A,,Clear,230,2013-06-25 22:55:00
4:15 PM,73.4,37.4,27,30.18,10.0,WSW,19.6,25.3,N/A,,Clear,250,2013-06-25 23:15:00
4:35 PM,73.4,37.4,27,30.18,10.0,SW,20.7,32.2,N/A,,Clear,230,2013-06-25 23:35:00
4:55 PM,71.6,37.4,29,30.18,10.0,SW,11.5,26.5,N/A,,Clear,220,2013-06-25 23:55:00
5:15 PM,73.4,37.4,27,30.19,10.0,SW,13.8,27.6,N/A,,Clear,230,2013-06-26 00:15:00
5:35 PM,73.4,37.4,27,30.18,10.0,WSW,12.7,26.5,N/A,,Clear,240,2013-06-26 00:35:00
5:55 PM,71.6,39.2,31,30.18,10.0,West,18.4,24.2,N/A,,Scattered Clouds,270,2013-06-26 00:55:00
6:15 PM,69.8,41.0,35,30.19,10.0,WNW,21.9,27.6,N/A,,Scattered Clouds,290,2013-06-26 01:15:00
6:35 PM,69.8,41.0,35,30.19,10.0,WNW,15.0,19.6,N/A,,Clear,290,2013-06-26 01:35:00
6:55 PM,68.0,42.8,40,30.20,10.0,WNW,12.7,21.9,N/A,,Clear,300,2013-06-26 01:55:00
7:15 PM,66.2,42.8,43,30.20,10.0,WNW,13.8,21.9,N/A,,Clear,300,2013-06-26 02:15:00
7:35 PM,64.4,42.8,45,30.20,10.0,West,10.4,20.7,N/A,,Clear,280,2013-06-26 02:35:00
7:55 PM,62.6,44.6,52,30.21,10.0,NW,15.0,25.3,N/A,,Clear,310,2013-06-26 02:55:00
8:15 PM,60.8,44.6,55,30.21,10.0,WNW,18.4,26.5,N/A,,Clear,300,2013-06-26 03:15:00
8:35 PM,60.8,44.6,55,30.22,10.0,West,17.3,25.3,N/A,,Clear,280,2013-06-26 03:35:00
8:55 PM,59.0,44.6,59,30.22,10.0,West,18.4,21.9,N/A,,Clear,280,2013-06-26 03:55:00
9:15 PM,59.0,46.4,63,30.22,10.0,West,16.1,21.9,N/A,,Clear,280,2013-06-26 04:15:00
9:35 PM,59.0,46.4,63,30.23,10.0,WSW,6.9,21.9,N/A,,Clear,240,2013-06-26 04:35:00
9:55 PM,57.2,46.4,67,30.24,10.0,West,16.1,23.0,N/A,,Clear,280,2013-06-26 04:55:00
10:15 PM,57.2,44.6,63,30.24,10.0,WNW,3.5,-,N/A,,Clear,300,2013-06-26 05:15:00
10:35 PM,55.4,44.6,67,30.25,10.0,Calm,Calm,-,N/A,,Clear,0,2013-06-26 05:35:00
10:55 PM,53.6,42.8,67,30.24,10.0,Calm,Calm,-,N/A,,Clear,0,2013-06-26 05:55:00
11:15 PM,51.8,42.8,71,30.24,10.0,Calm,Calm,-,N/A,,Clear,0,2013-06-26 06:15:00
11:35 PM,51.8,41.0,67,30.24,10.0,SSW,4.6,-,N/A,,Clear,210,2013-06-26 06:35:00
11:55 PM,50.0,41.0,71,30.24,10.0,Calm,Calm,-,N/A,,Clear,0,2013-06-26 06:55:00